Weather observations for the past three days for
Monroe County Airport
Imperial (Metric)
Date Time (cdt) Wind (mph) Vis. (mi.) Weather Sky Cond. Temperature (ºF) Relative Humidity Wind Chill (°F) Heat Index (°F) Pressure Precipitation (in)
Air Dwpt 6 hour altimeter (in) sea level (mb) 1 hr 3 hr 6 hr
Max. Min.
10 09:35 S 6 3.00 Fog/Mist OVC003 66.2 66.2 100% 30.07 0.0
10 09:15 Calm 2.50 Fog/Mist OVC003 66.2 66.2 100% 30.06 0.0
10 08:55 Calm 0.75 Fog/Mist OVC003 66.2 66.2 100% 30.06 0.0
10 08:35 Calm 0.25 Fog OVC002 66.2 66.2 100% 30.06 0.0
10 08:15 Calm 0.15 Fog OVC002 64.4 64.4 100% 30.06 0.0
10 07:55 S 3 0.15 Fog OVC002 64.4 64.4 100% 30.06 0.0
10 07:35 S 3 0.15 Fog OVC002 64.4 64.4 100% 30.05 0.0
10 07:15 Calm 0.15 Fog OVC002 64.4 64.4 100% 30.05 0.0
10 06:55 Calm 0.15 Fog OVC002 64.4 64.4 100% 30.04 0.0
10 06:35 Calm 0.15 Fog OVC002 64.4 64.4 100% 30.02 0.0
10 06:15 Calm 0.15 Fog OVC002 64.4 64.4 100% 30.01 0.0
10 05:55 Calm 0.25 Fog OVC002 64.4 64.4 100% 30 0.0
10 05:35 Calm 0.15 Fog OVC002 64.4 64.4 100% 29.99 0.0
10 05:15 Calm 0.15 Fog OVC002 64.4 64.4 100% 29.98 0.0
10 04:55 Calm 0.15 Fog OVC002 64.4 64.4 100% 29.98 0.0
10 04:35 Calm 0.15 Fog OVC001 64.4 64.4 100% 29.97 0.0
10 04:15 Calm 0.15 Fog OVC001 64.4 64.4 100% 29.96 0.0
10 03:55 Calm 0.15 Fog OVC001 64.4 64.4 100% 29.96 0.0
10 03:35 Calm 0.15 Fog OVC001 62.6 62.6 100% 29.96 0.0
10 03:15 Calm 0.15 Fog OVC001 62.6 62.6 100% 29.95 0.0
10 02:55 Calm 0.15 Fog OVC001 62.6 62.6 100% 29.95 0.0
10 02:35 Calm 0.15 Fog OVC002 62.6 62.6 100% 29.95 0.0
10 02:15 Calm 0.15 Fog OVC002 62.6 62.6 100% 29.94 0.0
10 01:55 Calm 0.75 Fog/Mist OVC002 60.8 60.8 100% 29.95 0.0
10 01:35 Calm 3.00 Fog/Mist OVC002 60.8 60.8 100% 29.95 0.0
10 01:15 Calm 4.00 Fog/Mist BKN002 60.8 59 94% 29.95 0.0
10 00:55 Calm 0.15 Fog BKN002 60.8 60.8 100% 29.95 0.0
10 00:35 Calm 0.15 Fog VV000 60.8 60.8 100% 29.95 0.0
10 00:15 Calm 8.00 Fair CLR 60.8 60.8 100% 29.95 0.0
09 23:55 Calm 1.50 Fog/Mist CLR 60.8 60.8 100% 29.95 0.0
09 23:35 Calm 0.75 Fog/Mist VV005 62.6 60.8 94% 29.96 0.0
09 23:15 Calm 0.15 Fog VV000 60.8 60.8 100% 29.96 0.0
09 22:55 Calm 0.75 Fog/Mist VV005 62.6 60.8 94% 29.96 0.0
09 22:35 Calm 1.25 Fog/Mist CLR 62.6 60.8 94% 29.97 0.0
09 22:15 Calm 4.00 Fog/Mist CLR 62.6 60.8 94% 29.96 0.0
09 21:55 Calm 4.00 Fog/Mist CLR 62.6 59 88% 29.96 0.0
09 21:35 Calm 3.00 Fair with Haze CLR 64.4 59 83% 29.96 0.0
09 21:15 Calm 8.00 Fair CLR 64.4 62.6 94% 29.95 0.0
09 20:55 Calm 10.00 Fair CLR 64.4 62.6 94% 29.94 0.0
09 20:35 Calm 10.00 Fair CLR 66.2 60.8 83% 29.92 0.0
09 20:15 Calm 10.00 Fair CLR 68 62.6 83% 29.91 0.0
09 19:55 Calm 10.00 Fair CLR 69.8 62.6 78% 29.9 0.0
09 19:35 S 5 10.00 Fair CLR 71.6 62.6 73% 29.89 0.0
09 19:15 SE 5 10.00 Fair CLR 73.4 62.6 69% 29.88 0.0
09 18:55 SE 3 10.00 Fair CLR 73.4 62.6 69% 29.88 0.0
09 18:35 SE 3 10.00 Fair CLR 73.4 62.6 69% 29.88 0.0
09 18:15 SE 3 10.00 Fair CLR 73.4 62.6 69% 29.88 0.0
09 17:55 S 6 10.00 Fair CLR 73.4 60.8 65% 29.88 0.0
09 17:35 S 3 10.00 Fair CLR 75.2 59 57% 78 29.87 0.0
09 17:15 S 3 10.00 Fair CLR 75.2 60.8 61% 77 29.87 0.0
09 16:55 Calm 10.00 Fair CLR 75.2 60.8 61% 77 29.86 0.0
09 16:35 W 3 10.00 Fair CLR 75.2 60.8 61% 77 29.86 0.0
09 16:15 Calm 10.00 Fair CLR 75.2 60.8 61% 77 29.86 0.0
09 15:55 Calm 10.00 Fair CLR 75.2 62.6 65% 77 29.87 0.0
09 15:35 Calm 10.00 Fair CLR 75.2 39.2 27% 77 29.87 0.0
09 15:15 Calm 10.00 Fair CLR 75.2 32 21% 76 29.88 0.0
09 14:55 Calm 10.00 Fair CLR 75.2 32 21% 76 29.89 0.0
09 14:35 Calm 10.00 Fair CLR 75.2 62.6 65% 77 29.89 0.0
09 14:15 Calm 10.00 Fair CLR 75.2 62.6 65% 77 29.89 0.0
09 13:55 Calm 10.00 A Few Clouds FEW024 75.2 62.6 65% 77 29.89 0.0
09 13:35 Vrbl 3 10.00 Mostly Cloudy BKN024 73.4 62.6 69% 29.9 0.0
09 13:15 Vrbl 3 10.00 Mostly Cloudy BKN024 73.4 62.6 69% 29.91 0.0
09 12:55 S 5 10.00 Partly Cloudy SCT024 SCT029 73.4 59 61% 29.92 0.0
09 12:35 Vrbl 6 10.00 Mostly Cloudy BKN022 BKN027 73.4 59 61% 29.93 0.0
09 12:15 SW 6 10.00 Overcast BKN019 OVC024 73.4 62.6 69% 29.93 0.0
09 11:55 S 7 10.00 Overcast OVC018 71.6 62.6 73% 29.93 0.0
09 11:35 SW 6 G 12 10.00 Mostly Cloudy BKN018 69.8 60.8 73% 29.93 0.0
09 11:15 W 3 10.00 Mostly Cloudy BKN017 69.8 62.6 78% 29.93 0.0
09 10:55 SE 5 10.00 Overcast OVC015 69.8 64.4 83% 29.93 0.0
09 10:35 SW 6 10.00 Overcast OVC013 68 64.4 88% 29.94 0.0
09 10:15 S 6 10.00 Overcast BKN012 OVC017 68 64.4 88% 29.93 0.0
09 09:55 S 9 10.00 Overcast OVC011 66.2 28.4 24% 29.93 0.0
09 09:35 S 6 10.00 Overcast BKN007 OVC013 66.2 64.4 94% 29.93 0.0
09 09:15 S 5 10.00 Overcast OVC006 64.4 64.4 100% 29.93 0.0
09 08:55 S 6 9.00 Overcast OVC006 64.4 64.4 100% 29.93 0.0
09 08:15 S 6 9.00 Overcast OVC005 62.6 62.6 100% 29.91 0.0
09 07:55 Calm 9.00 Overcast OVC005 62.6 62.6 100% 29.9 0.0
09 07:35 Calm 8.00 Overcast OVC005 62.6 62.6 100% 29.89 0.0
09 07:15 Calm 8.00 Overcast OVC005 60.8 60.8 100% 29.9 0.0
09 06:55 Calm 7.00 Overcast OVC004 60.8 60.8 100% 29.9 0.0
09 06:35 Calm 8.00 Overcast BKN004 OVC009 60.8 60.8 100% 29.89 0.0
09 06:15 Calm 9.00 Overcast BKN005 OVC009 60.8 60.8 100% 29.88 0.0
09 05:55 S 6 10.00 Overcast OVC005 60.8 60.8 100% 29.89 0.0
09 05:35 Calm 10.00 Overcast OVC004 60.8 60.8 100% 29.88 0.0
09 05:15 Calm 10.00 Overcast OVC006 60.8 60.8 100% 29.88 0.0
09 04:55 Calm 9.00 Overcast OVC007 60.8 60.8 100% 29.86 0.0
09 04:35 S 6 9.00 Overcast OVC008 60.8 60.8 100% 29.86 0.0
09 04:15 S 5 9.00 Overcast OVC009 60.8 60.8 100% 29.85 0.0
09 03:55 S 5 10.00 Overcast OVC011 59 59 100% 29.86 0.0
09 03:35 Calm 10.00 Overcast OVC010 60.8 60.8 100% 29.86 0.0
09 03:15 Calm 10.00 Overcast OVC010 60.8 60.8 100% 29.86 0.0
09 02:55 Calm 10.00 Overcast OVC011 60.8 60.8 100% 29.86 0.0
09 02:35 Calm 10.00 Overcast OVC010 60.8 60.8 100% 29.87 0.0
09 02:15 Calm 10.00 Overcast OVC010 60.8 60.8 100% 29.88 0.0
09 01:55 S 6 10.00 Overcast OVC011 60.8 60.8 100% 29.9 0.0
09 01:35 S 6 10.00 Overcast OVC012 60.8 60.8 100% 29.89 0.0
09 01:15 S 5 10.00 Overcast OVC013 60.8 60.8 100% 29.91 0.0
09 00:55 SW 3 10.00 Overcast OVC014 60.8 60.8 100% 29.91 0.0
09 00:35 S 3 10.00 Overcast BKN014 OVC019 59 59 100% 29.9 0.0
09 00:15 Calm 10.00 Mostly Cloudy BKN018 59 59 100% 29.9 0.0
08 23:55 Calm 10.00 Mostly Cloudy FEW018 BKN032 59 59 100% 29.89 0.0
08 23:35 Calm 10.00 Overcast BKN020 OVC033 59 59 100% 29.9 0.0
08 23:15 Calm 10.00 Overcast OVC023 59 59 100% 29.91 0.0
08 22:55 Calm 10.00 Overcast OVC026 59 59 100% 29.92 0.0
08 22:15 Calm 10.00 Fair CLR 57.2 57.2 100% 29.91 0.0
08 21:55 Calm 10.00 Fair CLR 57.2 57.2 100% 29.9 0.0
08 21:35 Calm 10.00 Fair CLR 59 59 100% 29.9 0.0
08 21:15 Calm 10.00 Fair CLR 59 59 100% 29.91 0.0
08 20:55 Calm 10.00 Fair CLR 59 55.4 88% 29.91 0.0
08 20:35 Calm 10.00 Fair CLR 60.8 57.2 88% 29.91 0.0
08 20:15 SE 5 10.00 Fair CLR 62.6 53.6 73% 29.9 0.0
08 19:55 Calm 10.00 Fair CLR 62.6 50 64% 29.91 0.0
08 19:35 Calm 10.00 Fair CLR 64.4 24.8 22% 29.92 0.0
08 19:15 SE 3 10.00 Fair CLR 64.4 21.2 19% 29.91 0.0
08 18:55 SE 5 10.00 Fair CLR 66.2 21.2 18% 29.91 0.0
08 18:35 Calm 10.00 A Few Clouds FEW110 66.2 24.8 21% 29.91 0.0
08 18:15 SE 6 10.00 Partly Cloudy SCT120 66.2 23 19% 29.92 0.0
08 17:55 SE 7 10.00 Mostly Cloudy BKN120 66.2 21.2 18% 29.91 0.0
08 17:35 S 8 10.00 A Few Clouds FEW120 68 21.2 17% 29.92 0.0
08 17:15 S 12 10.00 Fair CLR 68 23 18% 29.93 0.0
08 16:55 S 8 10.00 A Few Clouds FEW120 68 24.8 20% 29.94 0.0
08 16:35 S 8 10.00 Fair CLR 69.8 24.8 18% 29.94 0.0
08 16:15 S 8 10.00 Fair CLR 69.8 24.8 18% 29.95 0.0
08 15:55 S 9 10.00 Fair CLR 69.8 24.8 18% 29.96 0.0
08 15:35 S 10 10.00 Fair CLR 69.8 23 17% 29.94 0.0
08 15:15 S 13 10.00 Fair CLR 71.6 24.8 17% 29.95 0.0
08 14:55 S 6 G 13 10.00 Fair CLR 71.6 24.8 17% 29.95 0.0
08 14:35 Vrbl 7 G 15 10.00 Fair CLR 69.8 23 17% 29.96 0.0
08 14:15 S 9 10.00 Fair CLR 69.8 23 17% 29.96 0.0
08 13:55 S 10 10.00 Fair CLR 71.6 24.8 17% 29.98 0.0
08 13:35 SE 7 10.00 Fair CLR 69.8 23 17% 29.98 0.0
08 13:15 S 9 10.00 Fair CLR 69.8 23 17% 29.99 0.0
08 12:55 Vrbl 7 G 13 10.00 Fair CLR 69.8 23 17% 29.99 0.0
08 12:35 SE 7 10.00 Fair CLR 69.8 23 17% 29.99 0.0
08 12:15 SE 7 10.00 Fair CLR 69.8 23 17% 30 0.0
08 11:55 SE 5 10.00 Fair CLR 69.8 23 17% 30.02 0.0
08 11:35 SE 5 10.00 Fair CLR 69.8 23 17% 30.02 0.0
08 11:15 Calm 10.00 Fair CLR 69.8 21.2 16% 30.04 0.0
08 10:55 E 5 10.00 Fair CLR 68 21.2 17% 30.05 0.0
08 10:35 Vrbl 6 10.00 Fair CLR 68 24.8 20% 30.05 0.0
08 10:15 E 7 10.00 Fair CLR 68 21.2 17% 30.06 0.0
08 09:55 SE 8 10.00 Fair CLR 66.2 21.2 18% 30.06 0.0
08 09:35 SE 7 10.00 Fair CLR 66.2 19.4 17% 30.06 0.0
08 09:15 E 8 10.00 Fair CLR 64.4 50 60% 30.06 0.0
08 08:55 Vrbl 6 10.00 Fair CLR 62.6 30.2 30% 30.07 0.0
08 08:35 E 7 10.00 Fair CLR 60.8 21.2 22% 30.08 0.0
08 08:15 Calm 10.00 Fair CLR 59 28.4 31% 30.07 0.0
08 07:55 Calm 10.00 Fair CLR 57.2 53.6 88% 30.07 0.0
08 07:35 Calm 10.00 Fair CLR 53.6 53.6 100% 30.07 0.0
08 07:15 Calm 9.00 Fair CLR 51.8 51.8 100% 30.07 0.0
08 06:55 Calm 8.00 Fair CLR 51.8 51.8 100% 30.07 0.0
08 06:35 Calm 7.00 Fair CLR 50 50 100% 30.06 0.0
08 06:15 Calm 3.00 Fog/Mist CLR 48.2 48.2 100% 30.05 0.0
08 05:55 Calm 0.75 Fog/Mist VV005 50 50 100% 30.04 0.0
08 05:35 Calm 4.00 Fog/Mist CLR 50 50 100% 30.04 0.0
08 05:15 Calm 4.00 Fog/Mist CLR 50 50 100% 30.03 0.0
08 04:55 Calm 8.00 Fair CLR 51.8 51.8 100% 30.03 0.0
08 04:35 Calm 3.00 Fair with Haze CLR 51.8 41 67% 30.02 0.0
08 04:15 Calm 9.00 Fair CLR 51.8 51.8 100% 30.02 0.0
08 03:55 Calm 8.00 Fair CLR 51.8 50 94% 30.01 0.0
08 03:35 Calm 4.00 Fog/Mist CLR 51.8 50 94% 30 0.0
08 03:15 Calm 8.00 Fair CLR 51.8 51.8 100% 30 0.0
08 02:55 Calm 1.00 Fog/Mist CLR 51.8 50 94% 30 0.0
08 02:35 Calm 4.00 Fog/Mist CLR 53.6 50 88% 30 0.0
08 02:15 Calm 5.00 Fair with Haze CLR 51.8 35.6 54% 30.01 0.0
08 01:55 Calm 10.00 Fair CLR 53.6 53.6 100% 30.01 0.0
08 01:35 Calm 10.00 Fair CLR 55.4 53.6 94% 30.01 0.0
08 01:15 N 6 10.00 Fair CLR 53.6 53.6 100% 30.02 0.0
08 00:55 N 6 9.00 Fair CLR 55.4 53.6 94% 30.02 0.0
08 00:35 Calm 6.00 Fog/Mist CLR 53.6 53.6 100% 30.03 0.0
08 00:15 Calm 5.00 Fog/Mist CLR 55.4 53.6 94% 30.03 0.0
07 23:55 Calm 2.50 Fog/Mist CLR 55.4 51.8 88% 30.03 0.0
07 23:35 Calm 7.00 Fair CLR 55.4 55.4 100% 30.03 0.0
07 23:15 Calm 9.00 Fair CLR 55.4 55.4 100% 30.04 0.0
07 22:55 Calm 7.00 Fair CLR 55.4 55.4 100% 30.03 0.0
07 22:35 Calm 8.00 Fair CLR 57.2 57.2 100% 30.04 0.0
07 22:15 Calm 9.00 Fair CLR 55.4 55.4 100% 30.03 0.0
07 21:55 Calm 10.00 Fair CLR 55.4 55.4 100% 30.03 0.0
07 21:35 Calm 10.00 Fair CLR 57.2 57.2 100% 30.03 0.0
07 21:15 Calm 10.00 Fair CLR 57.2 57.2 100% 30.02 0.0
07 20:55 Calm 10.00 Fair CLR 57.2 57.2 100% 30.01 0.0
07 20:35 Calm 10.00 Fair CLR 57.2 44.6 63% 30.01 0.0
07 20:15 Calm 10.00 Fair CLR 59 42.8 55% 30.01 0.0
07 19:55 Calm 10.00 Fair CLR 59 50 72% 30.01 0.0
07 19:35 Calm 10.00 Fair CLR 60.8 28.4 29% 30 0.0
07 19:15 Calm 10.00 Fair CLR 62.6 35.6 37% 30 0.0
07 18:55 Calm 10.00 Fair CLR 62.6 23 22% 30 0.0
07 18:35 Calm 10.00 Fair CLR 64.4 39.2 40% 30 0.0
07 18:15 NE 3 10.00 Fair CLR 66.2 48.2 52% 30 0.0
07 17:55 N 3 10.00 Fair CLR 68 46.4 46% 30 0.0
07 17:35 N 6 10.00 Fair CLR 68 42.8 40% 29.99 0.0
07 17:15 N 8 10.00 Fair CLR 69.8 24.8 18% 29.98 0.0
07 16:55 NW 6 10.00 Fair CLR 68 24.8 20% 29.98 0.0
07 16:35 NW 9 10.00 Fair CLR 69.8 24.8 18% 29.98 0.0
07 16:15 NW 7 10.00 Fair CLR 69.8 24.8 18% 29.98 0.0
07 15:15 Vrbl 5 10.00 Fair CLR 69.8 24.8 18% 29.98 0.0
07 14:55 N 8 10.00 Fair CLR 71.6 24.8 17% 30 0.0
07 14:35 NW 9 10.00 A Few Clouds FEW042 69.8 24.8 18% 30 0.0
07 14:15 N 7 10.00 Partly Cloudy SCT042 69.8 23 17% 30.01 0.0
07 13:55 Vrbl 6 G 13 10.00 A Few Clouds FEW042 69.8 23 17% 30 0.0
07 13:35 Calm 10.00 A Few Clouds FEW040 68 48.2 49% 30 0.0
07 13:15 Vrbl 3 10.00 A Few Clouds FEW038 68 48.2 49% 30.01 0.0
07 12:55 NW 5 10.00 Fair CLR 66.2 50 56% 30.01 0.0
07 12:35 Vrbl 6 10.00 Fair CLR 66.2 51.8 60% 30.02 0.0
07 12:15 NE 7 10.00 Fair CLR 64.4 50 60% 30.01 0.0
07 11:55 NE 10 10.00 Fair CLR 64.4 41 43% 30.02 0.0
07 11:35 N 13 10.00 Fair CLR 64.4 39.2 40% 30.04 0.0
07 11:15 N 12 G 17 10.00 A Few Clouds FEW029 64.4 50 60% 30.05 0.0
07 10:55 N 12 G 17 10.00 A Few Clouds FEW027 66.2 42.8 43% 30.04 0.0
07 10:35 N 13 10.00 Mostly Cloudy BKN025 64.4 50 60% 30.03 0.0
07 10:15 N 15 10.00 Mostly Cloudy BKN023 62.6 55.4 77% 30.03 0.0
07 09:55 N 10 10.00 Partly Cloudy SCT020 62.6 53.6 73% 30.03 0.0
Date Time (cdt) Wind (mph) Vis. (mi.) Weather Sky Cond. Air Dwpt Max. Min. Relative Humidity Wind Chill (°F) Heat Index (°F) altimeter (in) sea level (mb) 1 hr 3 hr 6 hr
6 hour
Temperature (ºF) Pressure Precipitation (in)